Latest Coastal Weather Observations for Maroochydore

IDQ60701

Issued at 7:01 am EST Monday 2 March 2015 (issued every 10 minutes, with the page automatically refreshed every 10 minutes)

About coastal observations | Map of coastal stations | Coastal observations for QLD | Marine services | Other Formats
Station Details ID: 040861 Name: SUNSHINE COAST AIRPORT Lat: -26.60 Lon: 153.09 Height: 3.3 m
Data from the previous 72 hours. | See also: Recent months at Maroochydore
Date/Time
EST
Temp

°C
Wind Pressure Rain
since 9am
mm
Weather Cloud Vis
km
Sea
Height
m
Swell
Dir
 
Speed
knots
Gust
knots
hPa Trend Height
m
Period
s
Dir
02/06:30am 22.3 SSW 4 5 1011.7 - 0.0 - Partly cloudy 10 - - - -
02/06:00am 21.5 SW 3 4 1011.1 - 0.0 - - 10 - - - -
02/05:30am 21.2 WSW 3 4 1010.7 - 0.0 - - 10 - - - -
02/05:00am 21.0 WSW 1 3 1010.2 - 0.0 - - 10 - - - -
02/04:30am 21.7 SW 3 4 1009.9 - 0.0 - - 10 - - - -
02/04:00am 21.5 W 4 5 1009.6 - 0.0 - - 10 - - - -
02/03:30am 21.9 WNW 4 5 1009.5 - 0.0 - Partly cloudy 10 - - - -
02/03:00am 21.9 W 5 5 1009.4 - 0.0 - Partly cloudy 10 - - - -
02/02:30am 21.9 W 4 5 1009.6 - 0.0 - Partly cloudy 10 - - - -
02/02:00am 21.7 W 1 6 1009.9 - 0.0 - Partly cloudy 10 - - - -
02/01:30am 21.9 CALM 0 0 1010.2 - 0.0 - Partly cloudy 10 - - - -
02/01:00am 21.8 CALM 0 0 1010.0 - 0.0 - - 10 - - - -
02/12:30am 21.7 W 2 3 1009.9 - 0.0 - - 10 - - - -
 
Date/Time
EST
Temp

°C
Wind Pressure Rain
since 9am
mm
Weather Cloud Vis
km
Sea
Height
m
Swell
Dir
 
Speed
knots
Gust
knots
hPa Trend Height
m
Period
s
Dir
01/11:30pm 22.2 W 5 6 1009.9 - 0.0 - Partly cloudy 10 - - - -
01/11:00pm 22.3 WNW 5 6 1009.7 - 0.0 - - 10 - - - -
01/10:30pm 22.9 W 3 3 1010.3 - 0.0 - Partly cloudy 10 - - - -
01/10:00pm 23.5 W 3 5 1010.5 - 0.0 - Partly cloudy 10 - - - -
01/09:30pm 23.9 WNW 5 5 1010.5 - 0.0 - Partly cloudy 10 - - - -
01/09:00pm 24.9 NNE 8 10 1009.9 - 0.0 - - 10 - - - -
01/08:30pm 24.4 NNE 7 8 1010.0 - 0.0 - - 10 - - - -
01/08:00pm 24.8 NNE 7 9 1009.9 - 0.0 - - 10 - - - -
01/07:30pm 25.0 NNE 8 10 1009.4 - 0.0 - - 10 - - - -
01/07:00pm 24.9 NNE 8 9 1009.1 - 0.0 - - 10 - - - -
01/06:30pm 24.9 NNE 7 11 1008.7 - 0.0 - - 10 - - - -
01/06:00pm 25.5 NNE 8 11 1008.4 - 0.0 - - 10 - - - -
01/05:30pm 26.4 NNE 8 11 1008.2 - 0.0 - - 10 - - - -
01/05:00pm 27.2 NE 9 11 1008.3 - 0.0 - - 10 - - - -
01/04:30pm 27.8 NE 9 12 1008.1 - 0.0 - - 10 - - - -
01/04:00pm 28.1 ENE 9 12 1008.1 - 0.0 - - 10 - - - -
01/03:30pm 28.2 ENE 10 12 1008.2 - 0.0 - - 10 - - - -
01/03:00pm 28.7 ENE 10 13 1008.3 - 0.0 - - 10 - - - -
01/02:30pm 29.0 ENE 9 12 1008.7 - 0.0 - - 10 - - - -
01/02:00pm 29.2 ENE 9 13 1008.9 - 0.0 - - 10 - - - -
01/01:30pm 29.5 ENE 10 13 1009.2 - 0.0 - - 10 - - - -
01/01:00pm 30.0 ENE 9 13 1009.4 - 0.0 - - 10 - - - -
01/12:30pm 29.0 ENE 9 11 1009.7 - 0.0 - - 10 - - - -
01/12:00pm 29.6 ENE 9 11 1009.8 - 0.0 - - 10 - - - -
01/11:30am 28.7 ENE 8 10 1010.3 - 0.0 - - 10 - - - -
01/11:00am 28.8 E 7 9 1010.7 - 0.0 - - 10 - - - -
01/10:30am 28.8 E 8 11 1011.1 - 0.0 - - 10 - - - -
01/10:00am 28.3 E 7 8 1011.1 - 0.0 - - 10 - - - -
01/09:30am 28.0 ESE 6 9 1011.1 - 0.0 - - 10 - - - -
01/09:00am 27.7 ESE 5 8 1011.1 - 0.0 - - 10 - - - -
01/08:30am 27.2 ESE 5 8 1010.9 - 0.0 - - 10 - - - -
01/08:00am 26.0 SSW 5 6 1010.7 - 0.0 - - 10 - - - -
01/07:30am 24.5 SW 5 6 1010.5 - 0.0 - Partly cloudy 10 - - - -
01/07:00am 22.8 WSW 4 5 1010.4 - 0.0 - Partly cloudy 10 - - - -
01/06:30am 21.8 CALM 0 0 1010.2 - 0.0 - Partly cloudy 10 - - - -
01/06:00am 20.9 CALM 0 0 1010.0 - 0.0 - - 10 - - - -
01/05:30am 21.2 CALM 0 0 1009.8 - 0.0 - Partly cloudy 10 - - - -
01/05:00am 21.5 CALM 0 0 1009.7 - 0.0 - Partly cloudy 10 - - - -
01/04:30am 21.2 WSW 3 4 1009.6 - 0.0 - Partly cloudy 10 - - - -
01/04:00am 21.0 W 3 4 1009.4 - 0.0 - - 10 - - - -
01/03:30am 21.2 WSW 2 6 1009.5 - 0.0 - Partly cloudy 10 - - - -
01/03:00am 20.9 CALM 0 0 1009.3 - 0.0 - Mostly clear 10 - - - -
01/02:30am 21.2 WSW 3 4 1009.4 - 0.0 - Partly cloudy 10 - - - -
01/02:00am 21.4 WSW 4 5 1009.7 - 0.0 - Partly cloudy 10 - - - -
01/01:30am 21.4 W 4 5 1009.9 - 0.0 - Partly cloudy 10 - - - -
01/01:00am 21.7 W 5 6 1010.3 - 0.0 - Partly cloudy 10 - - - -
01/12:30am 21.7 CALM 0 0 1010.5 - 0.0 - - 10 - - - -
01/12:00am 22.5 CALM 0 0 1010.8 - 0.0 - - 10 - - - -
 
Date/Time
EST
Temp

°C
Wind Pressure Rain
since 9am
mm
Weather Cloud Vis
km
Sea
Height
m
Swell
Dir
 
Speed
knots
Gust
knots
hPa Trend Height
m
Period
s
Dir
28/11:30pm 22.8 CALM 0 0 1011.1 - 0.0 - - 10 - - - -
28/11:00pm 23.5 SW 3 6 1011.3 - 0.0 - Partly cloudy 10 - - - -
28/10:30pm 24.2 NE 5 6 1011.3 - 0.0 - - 10 - - - -
28/10:00pm 24.6 NE 6 8 1011.3 - 0.0 - Partly cloudy 10 - - - -
28/09:30pm 25.0 NE 6 8 1011.2 - 0.0 - Partly cloudy 10 - - - -
28/09:00pm 24.9 ENE 8 9 1011.1 - 0.0 - - 10 - - - -
28/08:30pm 25.2 ENE 9 12 1010.9 - 0.0 - - 10 - - - -
28/08:00pm 25.1 ENE 9 11 1010.7 - 0.0 - Partly cloudy 10 - - - -
28/07:30pm 25.6 ENE 10 12 1010.6 - 0.0 - Partly cloudy 10 - - - -
28/07:00pm 25.5 ENE 8 10 1010.2 - 0.0 - Partly cloudy 10 - - - -
28/06:30pm 25.6 ENE 8 10 1009.9 - 0.0 - Partly cloudy 10 - - - -
28/06:00pm 25.9 ENE 8 10 1009.6 - 0.0 - Mostly clear 10 - - - -
28/05:30pm 26.7 ENE 9 11 1009.3 - 0.0 - Partly cloudy 10 - - - -
28/05:00pm 26.4 ENE 9 11 1009.2 - 0.0 - Partly cloudy 10 - - - -
28/04:30pm 27.5 ENE 9 12 1009.1 - 0.0 - - 10 - - - -
28/04:00pm 27.9 E 9 13 1008.8 - 0.0 - - 10 - - - -
28/03:30pm 27.7 E 10 13 1008.8 - 0.0 - - 10 - - - -
28/03:00pm 27.8 ENE 10 13 1008.9 - 0.0 - Mostly clear 10 - - - -
28/02:30pm 29.3 ENE 10 12 1009.1 - 0.0 - - 10 - - - -
28/02:00pm 29.3 ENE 10 13 1009.4 - 0.0 - - 10 - - - -
28/01:30pm 28.0 E 10 13 1009.6 - 0.0 - - 10 - - - -
28/01:00pm 28.6 ENE 10 12 1009.9 - 0.0 - Partly cloudy 10 - - - -
28/12:30pm 29.2 ENE 10 13 1010.1 - 0.0 - - 10 - - - -
28/12:00pm 28.4 E 9 12 1010.3 - 0.0 - - 10 - - - -
28/11:30am 28.6 E 9 11 1010.5 - 0.0 - - 10 - - - -
28/11:00am 28.2 E 9 11 1010.7 - 0.0 - - 10 - - - -
28/10:30am 27.8 E 8 11 1011.1 - 0.0 - - 10 - - - -
28/10:00am 28.0 E 7 10 1011.2 - 0.0 - - 10 - - - -
28/09:30am 28.2 E 6 8 1011.0 - 0.0 - - 10 - - - -
28/09:00am 28.4 E 5 7 1011.0 - 0.0 - - 10 - - - -
28/08:30am 27.7 E 5 7 1011.0 - 0.0 - Partly cloudy 10 - - - -
28/08:00am 25.8 WSW 4 6 1010.9 - 0.0 - - 10 - - - -
28/07:30am 24.2 WSW 4 5 1010.6 - 0.0 - - 10 - - - -
28/07:00am 22.8 WSW 4 5 1010.5 - 0.0 - - 10 - - - -
28/06:30am 21.3 W 4 5 1010.1 - 0.0 - Partly cloudy 10 - - - -
28/06:00am 20.7 SW 3 4 1009.9 - 0.0 - - 10 - - - -
28/05:30am 20.7 WSW 4 5 1009.4 - 0.0 - Partly cloudy 10 - - - -
28/05:00am 20.6 WSW 2 3 1009.2 - 0.0 - Partly cloudy 10 - - - -
28/04:30am 20.8 CALM 0 0 1009.0 - 0.0 - - 10 - - - -
28/04:00am 20.7 CALM 0 0 1008.8 - 0.0 - Partly cloudy 10 - - - -
28/03:30am 21.1 CALM 0 0 1009.2 - 0.0 - Partly cloudy 10 - - - -
28/03:00am 21.1 CALM 0 0 1009.1 - 0.0 - Mostly cloudy 10 - - - -
28/02:30am 21.3 CALM 0 0 1009.3 - 0.0 - Partly cloudy 10 - - - -
28/02:00am 21.0 CALM 0 0 1009.3 - 0.0 - Partly cloudy 10 - - - -
28/01:30am 21.3 CALM 0 0 1009.5 - 0.0 - - 10 - - - -
28/01:00am 21.3 CALM 0 0 1009.5 - 0.0 - Partly cloudy 10 - - - -
28/12:30am 21.5 CALM 0 0 1009.6 - 0.0 - - 10 - - - -
28/12:00am 21.9 CALM 0 0 1009.7 - 0.0 - - 10 - - - -
 
Date/Time
EST
Temp

°C
Wind Pressure Rain
since 9am
mm
Weather Cloud Vis
km
Sea
Height
m
Swell
Dir
 
Speed
knots
Gust
knots
hPa Trend Height
m
Period
s
Dir
27/11:30pm 22.2 CALM 0 0 1009.9 - 0.0 - Partly cloudy 10 - - - -
27/11:00pm 22.7 CALM 0 3 1009.9 - 0.0 - Partly cloudy 10 - - - -
27/10:30pm 24.0 NE 5 7 1009.9 - 0.0 - - 10 - - - -
27/10:00pm 24.5 NE 8 10 1009.9 - 0.0 - - 10 - - - -
27/09:30pm 24.5 NE 9 11 1009.6 - 0.0 - - 10 - - - -
27/09:00pm 24.6 ENE 8 10 1009.7 - 0.0 - - 10 - - - -
27/08:30pm 24.6 NE 8 9 1009.7 - 0.0 - Partly cloudy 10 - - - -
27/08:00pm 24.7 NE 8 11 1009.3 - 0.0 - Partly cloudy 10 - - - -
27/07:30pm 24.6 NE 9 11 1008.8 - 0.0 - - 10 - - - -
27/07:00pm 24.7 NE 8 11 1008.5 - 0.0 - - 10 - - - -
27/06:30pm 24.8 NE 8 11 1008.3 - 0.0 - - 10 - - - -
27/06:00pm 25.4 NE 9 12 1007.8 - 0.0 - - 10 - - - -
27/05:30pm 25.8 ENE 8 10 1007.8 - 0.0 - - 10 - - - -
27/05:00pm 26.5 ENE 9 11 1007.3 - 0.0 - - 10 - - - -
27/04:30pm 26.3 E 9 11 1006.9 - 0.0 - Partly cloudy 10 - - - -
27/04:00pm 26.4 ENE 9 11 1007.1 - 0.0 - Cloudy 10 - - - -
27/03:30pm 26.6 ENE 9 12 1007.0 - 0.0 - Cloudy 10 - - - -
27/03:00pm 28.5 ENE 10 12 1007.0 - 0.0 - Partly cloudy 10 - - - -
27/02:30pm 28.0 ENE 10 12 1007.1 - 0.0 - - 10 - - - -
27/02:00pm 28.0 ENE 9 13 1007.3 - 0.0 - - 10 - - - -
27/01:30pm 29.0 ENE 9 11 1007.5 - 0.0 - - 10 - - - -
27/01:00pm 28.5 ENE 9 11 1007.9 - 0.0 - - 10 - - - -
27/12:30pm 27.7 ENE 7 9 1008.1 - 0.0 - - 10 - - - -
27/12:00pm 27.8 ENE 8 10 1008.4 - 0.0 - - 10 - - - -
27/11:30am 27.4 ENE 6 8 1008.5 - 0.0 - - 10 - - - -
27/11:00am 27.2 ENE 7 8 1008.5 - 0.0 - Partly cloudy 10 - - - -
27/10:30am 26.0 NNW 4 6 1008.9 - 0.0 - - 10 - - - -
27/10:00am 25.3 WNW 6 11 1009.1 - 0.0 - - 10 - - - -
27/09:30am 23.1 W 5 8 1009.2 - 0.0 - - 10 - - - -
27/09:00am 22.1 W 10 12 1009.3 - 1.4 - Mostly cloudy 10 - - - -
27/08:30am 21.9 N 8 10 1008.8 - 1.4 - Partly cloudy 10 - - - -
27/08:00am 22.1 WSW 6 8 1010.4 - 0.4 - Partly cloudy 10 - - - -
27/07:30am 22.3 SW 6 7 1010.6 - 0.2 - Partly cloudy 10 - - - -

Other Formats:

Comma delimited format used in spreadsheet applications
http://www.bom.gov.au/fwo/IDQ60701/IDQ60701.94569.axf

JavaScript Object Notation format (JSON) in row-major order
http://www.bom.gov.au/fwo/IDQ60701/IDQ60701.94569.json